Time;durP1;ratioP1;P1;durP2;ratioP2;P2;SDS_P1;SDS_P2;PMS_P1;PMS_P2;Temp;Humidity;BMP_temperature;BMP_pressure;BME280_temperature;BME280_humidity;BME280_pressure;Samples;Min_cycle;Max_cycle;Signal;HPM_P1;HPM_P2
2023/08/18 00:01:38;;;;;;;8.37;3.53;;;21.40;99.90;;;;;;5106221;27;20204;-56
2023/08/18 00:04:04;;;;;;;4.30;3.70;;;21.50;99.90;;;;;;5105029;28;20634;-56
2023/08/18 00:06:30;;;;;;;7.23;3.83;;;21.50;99.90;;;;;;5096110;28;20245;-56
2023/08/18 00:08:55;;;;;;;5.50;4.00;;;21.50;99.90;;;;;;5118008;27;20689;-56
2023/08/18 00:11:20;;;;;;;5.00;3.70;;;21.50;99.90;;;;;;5092745;28;20513;-55
2023/08/18 00:13:46;;;;;;;3.97;3.53;;;21.50;99.90;;;;;;5118774;27;20193;-55
2023/08/18 00:16:12;;;;;;;6.10;3.90;;;21.50;99.90;;;;;;5085545;28;20221;-55
2023/08/18 00:18:38;;;;;;;5.57;4.53;;;21.50;99.90;;;;;;5107448;27;20250;-55
2023/08/18 00:21:03;;;;;;;3.97;3.47;;;21.50;99.90;;;;;;5112537;27;20805;-56
2023/08/18 00:23:29;;;;;;;4.13;3.83;;;21.40;99.90;;;;;;5106015;27;20194;-56
2023/08/18 00:25:54;;;;;;;6.20;3.97;;;21.40;99.90;;;;;;5105144;27;20200;-56
2023/08/18 00:28:19;;;;;;;5.97;4.20;;;21.50;99.90;;;;;;5104584;27;20307;-55
2023/08/18 00:30:45;;;;;;;6.33;4.60;;;21.40;99.90;;;;;;5124736;27;20238;-55
2023/08/18 00:33:11;;;;;;;4.20;3.90;;;21.40;99.90;;;;;;5104546;27;20202;-55
2023/08/18 00:35:37;;;;;;;4.77;4.20;;;21.40;99.90;;;;;;5106125;27;20196;-56
2023/08/18 00:38:02;;;;;;;4.47;3.90;;;21.40;99.90;;;;;;5124303;27;20309;-56
2023/08/18 00:40:28;;;;;;;8.07;5.20;;;21.40;99.90;;;;;;5105119;27;20189;-55
2023/08/18 00:42:53;;;;;;;8.13;5.00;;;21.50;99.90;;;;;;5115502;27;20200;-56
2023/08/18 00:45:19;;;;;;;4.67;4.27;;;21.50;99.90;;;;;;5117594;27;20181;-56
2023/08/18 00:47:44;;;;;;;5.77;4.40;;;21.60;99.90;;;;;;5104632;28;20216;-58
2023/08/18 00:50:11;;;;;;;5.23;4.73;;;21.50;99.90;;;;;;5105901;27;20732;-65
2023/08/18 00:52:38;;;;;;;4.60;4.00;;;21.40;99.90;;;;;;5105117;27;20227;-59
2023/08/18 00:55:06;;;;;;;4.27;3.97;;;21.50;99.90;;;;;;5120768;27;20195;-56
2023/08/18 00:57:33;;;;;;;4.57;4.27;;;21.40;99.90;;;;;;5118421;27;20208;-56
2023/08/18 00:59:58;;;;;;;6.57;5.10;;;21.40;99.90;;;;;;5107470;27;20193;-57
2023/08/18 01:02:24;;;;;;;7.68;5.18;;;21.40;99.90;;;;;;5123148;27;20491;-57
2023/08/18 01:04:51;;;;;;;8.20;4.80;;;21.40;99.90;;;;;;5082465;28;20243;-57
2023/08/18 01:07:16;;;;;;;5.83;4.77;;;21.40;99.90;;;;;;5122996;27;20211;-56
2023/08/18 01:09:42;;;;;;;5.03;4.53;;;21.50;99.90;;;;;;5104046;27;20226;-56
2023/08/18 01:12:23;;;;;;;5.17;4.67;;;21.60;99.90;;;;;;5123554;27;20286;-56
2023/08/18 01:15:13;;;;;;;8.27;5.70;;;21.70;99.90;;;;;;5101167;28;20179;-56
2023/08/18 01:17:52;;;;;;;7.93;5.83;;;21.70;99.90;;;;;;5083155;28;20300;-57
2023/08/18 01:20:19;;;;;;;5.23;4.73;;;21.60;99.90;;;;;;5083557;28;20213;-57
2023/08/18 01:22:48;;;;;;;7.47;4.93;;;21.50;99.90;;;;;;5123191;27;20184;-57
2023/08/18 01:25:14;;;;;;;5.80;5.13;;;21.50;99.90;;;;;;5103532;28;20187;-56
2023/08/18 01:27:39;;;;;;;5.60;5.17;;;21.50;99.90;;;;;;5123287;27;20215;-57
2023/08/18 01:30:05;;;;;;;6.53;5.97;;;21.60;99.90;;;;;;5123322;27;20199;-56
2023/08/18 01:32:43;;;;;;;6.73;5.80;;;21.60;99.90;;;;;;5103894;27;20546;-56
2023/08/18 01:35:11;;;;;;;5.83;5.33;;;21.60;99.90;;;;;;5083094;28;20192;-56
2023/08/18 01:37:37;;;;;;;6.20;5.60;;;21.50;99.90;;;;;;5111003;27;20281;-56
2023/08/18 01:40:04;;;;;;;6.20;5.70;;;21.50;99.90;;;;;;5117907;27;20191;-56
2023/08/18 01:42:30;;;;;;;8.20;6.10;;;21.40;99.90;;;;;;5117799;27;20215;-59
2023/08/18 01:45:01;;;;;;;6.40;5.73;;;21.40;99.90;;;;;;5096954;28;20180;-57
2023/08/18 01:47:27;;;;;;;7.67;6.30;;;21.40;99.90;;;;;;5064668;28;20299;-54
2023/08/18 01:49:52;;;;;;;7.23;5.30;;;21.40;99.90;;;;;;5103784;27;20726;-55
2023/08/18 01:52:18;;;;;;;6.33;5.73;;;21.20;99.90;;;;;;5123277;27;20192;-54
2023/08/18 01:54:43;;;;;;;6.03;5.53;;;21.10;99.90;;;;;;5103332;27;20192;-54
2023/08/18 01:57:09;;;;;;;6.37;5.87;;;21.10;99.90;;;;;;5114524;27;20192;-55
2023/08/18 01:59:34;;;;;;;6.60;6.10;;;21.20;99.90;;;;;;5086728;28;20280;-53
2023/08/18 02:02:00;;;;;;;7.20;5.97;;;21.20;99.90;;;;;;5122595;27;20211;-54
2023/08/18 02:04:25;;;;;;;9.30;5.47;;;21.30;99.90;;;;;;5103196;27;20213;-54
2023/08/18 02:06:50;;;;;;;6.83;6.13;;;21.20;99.90;;;;;;5103533;27;20212;-55
2023/08/18 02:09:16;;;;;;;5.63;5.23;;;21.20;99.90;;;;;;5080813;28;20561;-55
2023/08/18 02:11:41;;;;;;;8.43;6.87;;;21.10;99.90;;;;;;5108977;27;20196;-55
2023/08/18 02:14:07;;;;;;;9.10;6.40;;;21.00;99.90;;;;;;5114104;27;20196;-55
2023/08/18 02:16:32;;;;;;;7.23;6.63;;;21.00;99.90;;;;;;5112033;27;20235;-54
2023/08/18 02:18:58;;;;;;;7.03;6.43;;;21.00;99.90;;;;;;5123666;27;20270;-63
2023/08/18 02:21:23;;;;;;;9.17;6.30;;;21.10;99.90;;;;;;5103249;27;20200;-58
2023/08/18 02:23:49;;;;;;;7.30;6.70;;;21.10;99.90;;;;;;5122364;27;20327;-55
2023/08/18 02:26:14;;;;;;;7.73;6.07;;;21.00;99.90;;;;;;5103212;27;20204;-55
2023/08/18 02:28:40;;;;;;;7.07;6.33;;;21.00;99.90;;;;;;5111332;27;20322;-59
2023/08/18 02:31:07;;;;;;;7.23;6.63;;;20.90;99.90;;;;;;5086529;28;20208;-56
2023/08/18 02:33:34;;;;;;;7.63;6.93;;;20.90;99.90;;;;;;5087840;28;20631;-55
2023/08/18 02:36:00;;;;;;;7.40;6.70;;;21.00;99.90;;;;;;5112799;27;20245;-56
2023/08/18 02:38:29;;;;;;;9.30;6.70;;;21.00;99.90;;;;;;5107223;27;20299;-55
2023/08/18 02:40:55;;;;;;;9.97;7.13;;;20.90;99.90;;;;;;5116906;27;20271;-56
2023/08/18 02:43:24;;;;;;;7.83;6.50;;;20.80;99.90;;;;;;5109979;27;20278;-55
2023/08/18 02:45:55;;;;;;;7.23;6.63;;;20.80;99.90;;;;;;5115246;27;20701;-55
2023/08/18 02:48:21;;;;;;;7.27;6.63;;;20.80;99.90;;;;;;5101833;28;20205;-55
2023/08/18 02:50:46;;;;;;;7.43;6.73;;;20.90;99.90;;;;;;5112813;27;20196;-56
2023/08/18 02:53:13;;;;;;;8.53;6.93;;;21.00;99.90;;;;;;5108787;27;20620;-55
2023/08/18 02:55:39;;;;;;;9.57;6.70;;;20.90;99.90;;;;;;5105835;27;20195;-56
2023/08/18 02:58:05;;;;;;;7.23;6.53;;;20.80;99.90;;;;;;5106580;27;20287;-56
2023/08/18 03:00:31;;;;;;;7.50;6.67;;;20.70;99.90;;;;;;5110867;27;20321;-55
2023/08/18 03:02:58;;;;;;;7.60;6.57;;;20.70;99.90;;;;;;5104898;28;20196;-56
2023/08/18 03:05:24;;;;;;;8.43;6.73;;;20.80;99.90;;;;;;5103289;28;20217;-56
2023/08/18 03:07:49;;;;;;;7.77;6.27;;;20.80;99.90;;;;;;5082776;28;20215;-56
2023/08/18 03:10:15;;;;;;;7.77;6.43;;;20.80;99.90;;;;;;5108601;28;20196;-56
2023/08/18 03:12:40;;;;;;;7.00;6.50;;;20.80;99.90;;;;;;5082777;28;20184;-55
2023/08/18 03:15:06;;;;;;;7.10;6.50;;;20.60;99.90;;;;;;5082887;28;20512;-56
2023/08/18 03:17:32;;;;;;;8.07;7.27;;;20.50;99.90;;;;;;5110154;28;20235;-55
2023/08/18 03:19:57;;;;;;;8.70;7.77;;;20.40;99.90;;;;;;5107224;28;20196;-58
2023/08/18 03:22:23;;;;;;;8.10;6.97;;;20.40;99.90;;;;;;5107435;27;20201;-58
2023/08/18 03:24:48;;;;;;;7.63;6.77;;;20.40;99.90;;;;;;5107901;27;20199;-58
2023/08/18 03:27:14;;;;;;;11.60;7.33;;;20.50;99.90;;;;;;5121352;27;20286;-58
2023/08/18 03:29:39;;;;;;;9.47;7.37;;;20.60;99.90;;;;;;5125655;27;20664;-59
2023/08/18 03:32:05;;;;;;;7.40;6.27;;;20.60;99.90;;;;;;5106947;27;20612;-58
2023/08/18 03:34:31;;;;;;;8.57;7.03;;;20.50;99.90;;;;;;5116368;27;20269;-58
2023/08/18 03:36:56;;;;;;;7.67;6.87;;;20.50;99.90;;;;;;5111311;27;20230;-58
2023/08/18 03:39:22;;;;;;;7.33;6.50;;;20.40;99.90;;;;;;5107223;27;20290;-58
2023/08/18 03:41:47;;;;;;;7.33;6.63;;;20.50;99.90;;;;;;5116244;27;20596;-58
2023/08/18 03:44:13;;;;;;;7.50;6.53;;;20.40;99.90;;;;;;5103332;27;20755;-58
2023/08/18 03:46:39;;;;;;;7.07;6.37;;;20.40;99.90;;;;;;5117403;27;20676;-58
2023/08/18 03:49:05;;;;;;;6.67;6.07;;;20.50;99.90;;;;;;5091935;28;20361;-56
2023/08/18 03:51:32;;;;;;;10.57;5.97;;;20.50;99.90;;;;;;5105650;27;20352;-56
2023/08/18 03:53:57;;;;;;;7.17;6.47;;;20.50;99.90;;;;;;5119056;27;20196;-56
2023/08/18 03:56:23;;;;;;;9.00;6.00;;;20.60;99.90;;;;;;5124668;27;20266;-66
2023/08/18 03:58:48;;;;;;;7.60;6.63;;;20.80;99.90;;;;;;5087217;28;20610;-65
2023/08/18 04:01:14;;;;;;;8.47;6.30;;;20.70;99.90;;;;;;5086369;28;20656;-58
2023/08/18 04:03:42;;;;;;;6.43;5.80;;;20.70;99.90;;;;;;5107860;27;20205;-54
2023/08/18 04:06:07;;;;;;;8.80;6.57;;;20.70;99.90;;;;;;5107248;27;20212;-53
2023/08/18 04:08:42;;;;;;;7.97;7.27;;;20.70;99.90;;;;;;5113973;27;20972;-54
2023/08/18 04:11:08;;;;;;;9.27;6.27;;;20.70;99.90;;;;;;5104983;28;20190;-57
2023/08/18 04:13:34;;;;;;;7.77;6.80;;;20.70;99.90;;;;;;5105803;27;20223;-54
2023/08/18 04:15:59;;;;;;;7.43;6.73;;;20.70;99.90;;;;;;5116676;27;20279;-54
2023/08/18 04:18:25;;;;;;;8.40;7.53;;;20.70;99.90;;;;;;5110997;27;20258;-55
2023/08/18 04:20:50;;;;;;;7.90;7.20;;;20.60;99.90;;;;;;5109178;27;20210;-54
2023/08/18 04:23:16;;;;;;;12.07;9.00;;;20.60;99.90;;;;;;5116111;27;20202;-54
2023/08/18 04:25:43;;;;;;;9.33;8.40;;;20.60;99.90;;;;;;5112279;27;20692;-54
2023/08/18 04:28:09;;;;;;;8.27;7.37;;;20.60;99.90;;;;;;5106683;27;20200;-54
2023/08/18 04:30:35;;;;;;;8.83;7.33;;;20.50;99.90;;;;;;5108617;27;20260;-54
2023/08/18 04:33:01;;;;;;;13.93;8.40;;;20.50;99.90;;;;;;5102525;27;20289;-54
2023/08/18 04:35:26;;;;;;;10.80;7.93;;;20.50;99.90;;;;;;5085878;28;20204;-54
2023/08/18 04:37:52;;;;;;;15.03;10.63;;;20.60;99.90;;;;;;5119488;27;20199;-54
2023/08/18 04:40:17;;;;;;;15.40;10.17;;;20.60;99.90;;;;;;5115256;27;20231;-54
2023/08/18 04:42:43;;;;;;;20.00;12.27;;;20.60;99.90;;;;;;5118280;27;20723;-54
2023/08/18 04:45:09;;;;;;;19.60;11.97;;;20.70;99.90;;;;;;5102504;27;20184;-54
2023/08/18 04:47:34;;;;;;;17.50;12.67;;;20.80;99.90;;;;;;5119569;27;20653;-54
2023/08/18 04:50:00;;;;;;;15.63;11.30;;;20.70;99.90;;;;;;5115973;27;20239;-54
2023/08/18 04:52:25;;;;;;;12.00;9.13;;;20.70;99.90;;;;;;5122623;27;20998;-54
2023/08/18 04:54:51;;;;;;;11.43;9.90;;;20.70;99.90;;;;;;5119073;27;20192;-54
2023/08/18 04:57:17;;;;;;;12.67;9.80;;;20.80;99.90;;;;;;5115401;27;20650;-54
2023/08/18 04:59:42;;;;;;;17.20;10.53;;;20.90;99.90;;;;;;5123997;27;20202;-54
2023/08/18 05:02:08;;;;;;;16.80;10.90;;;20.90;99.90;;;;;;5100430;27;20294;-54
2023/08/18 05:04:34;;;;;;;17.60;11.47;;;20.80;99.90;;;;;;5104185;28;20199;-54
2023/08/18 05:06:59;;;;;;;16.83;12.23;;;20.70;99.90;;;;;;5112982;27;20200;-54
2023/08/18 05:09:25;;;;;;;23.40;15.53;;;20.70;99.90;;;;;;5088531;28;20295;-54
2023/08/18 05:11:50;;;;;;;22.50;13.77;;;20.80;99.90;;;;;;5117323;27;20252;-54
2023/08/18 05:14:16;;;;;;;26.80;16.30;;;20.90;99.90;;;;;;5111059;27;20210;-54
2023/08/18 05:16:41;;;;;;;27.70;17.33;;;20.90;99.90;;;;;;5114767;27;20288;-54
2023/08/18 05:19:07;;;;;;;31.20;19.83;;;21.00;99.90;;;;;;5116306;27;20248;-54
2023/08/18 05:21:32;;;;;;;36.70;21.60;;;21.00;99.90;;;;;;5086540;28;20276;-54
2023/08/18 05:23:58;;;;;;;40.40;24.00;;;21.00;99.90;;;;;;5104657;27;20273;-54
2023/08/18 05:26:23;;;;;;;64.27;33.10;;;21.10;99.90;;;;;;5122425;27;20560;-54
2023/08/18 05:28:49;;;;;;;50.07;28.17;;;21.10;99.90;;;;;;5114368;27;20200;-54
2023/08/18 05:31:15;;;;;;;39.27;23.20;;;21.10;99.90;;;;;;5106661;27;20200;-54
2023/08/18 05:33:41;;;;;;;26.20;17.97;;;21.10;99.90;;;;;;5083318;28;20208;-55
2023/08/18 05:36:07;;;;;;;22.17;15.63;;;21.20;99.90;;;;;;5101850;27;21268;-54
2023/08/18 05:38:33;;;;;;;17.17;13.43;;;21.20;99.90;;;;;;5116958;27;20200;-54
2023/08/18 05:41:11;;;;;;;16.23;12.13;;;21.20;99.90;;;;;;5123445;27;20194;-55
2023/08/18 05:43:37;;;;;;;12.30;9.73;;;21.30;99.90;;;;;;5095684;28;20242;-56
2023/08/18 05:46:03;;;;;;;11.00;9.63;;;21.40;99.90;;;;;;5103282;27;20189;-54
2023/08/18 05:48:30;;;;;;;16.00;9.83;;;21.40;99.90;;;;;;5110092;27;20235;-54
2023/08/18 05:50:56;;;;;;;12.00;9.57;;;21.50;99.90;;;;;;5123003;27;20191;-56
2023/08/18 05:53:22;;;;;;;9.83;8.83;;;21.50;99.90;;;;;;5103434;28;20199;-56
2023/08/18 05:55:47;;;;;;;12.37;9.77;;;21.50;99.90;;;;;;5105372;27;20200;-54
2023/08/18 05:58:13;;;;;;;9.90;8.90;;;21.50;99.90;;;;;;5117263;27;20196;-55
2023/08/18 06:00:38;;;;;;;14.27;10.17;;;21.60;99.90;;;;;;5084870;28;20202;-64
2023/08/18 06:03:04;;;;;;;12.03;9.17;;;21.60;99.90;;;;;;5100512;27;21069;-56
2023/08/18 06:05:30;;;;;;;13.83;10.93;;;21.60;99.90;;;;;;5103416;27;20257;-56
2023/08/18 06:07:56;;;;;;;10.40;9.37;;;21.60;99.90;;;;;;5116994;27;20200;-54
2023/08/18 06:10:22;;;;;;;12.45;11.02;;;21.60;99.90;;;;;;5116482;27;20411;-54
2023/08/18 06:12:48;;;;;;;11.40;10.35;;;21.70;99.90;;;;;;5113917;27;20188;-55
2023/08/18 06:15:15;;;;;;;19.73;13.30;;;21.80;99.90;;;;;;5122734;27;20198;-54
2023/08/18 06:17:40;;;;;;;22.93;15.17;;;21.90;99.90;;;;;;5103041;28;20219;-55
2023/08/18 06:20:06;;;;;;;22.20;15.83;;;21.90;99.90;;;;;;5121989;27;20721;-56
2023/08/18 06:22:32;;;;;;;20.83;13.77;;;22.00;99.90;;;;;;5102776;28;20196;-64
2023/08/18 06:24:57;;;;;;;24.07;15.40;;;22.10;99.90;;;;;;5115760;27;20199;-63
2023/08/18 06:27:23;;;;;;;21.90;16.10;;;22.10;99.90;;;;;;5112305;27;20221;-62
2023/08/18 06:29:48;;;;;;;31.20;17.43;;;22.20;99.90;;;;;;5121660;27;20192;-63
2023/08/18 06:32:14;;;;;;;24.20;17.27;;;22.20;99.90;;;;;;5096239;28;20196;-63
2023/08/18 06:34:39;;;;;;;23.97;16.93;;;22.30;99.90;;;;;;5084049;28;20650;-63
2023/08/18 06:37:05;;;;;;;25.83;17.03;;;22.30;99.90;;;;;;5122284;27;20532;-63
2023/08/18 06:39:30;;;;;;;22.57;15.77;;;22.30;99.90;;;;;;5084415;28;20185;-62
2023/08/18 06:41:56;;;;;;;18.33;13.73;;;22.30;99.90;;;;;;5114799;27;20913;-65
2023/08/18 06:44:22;;;;;;;15.80;12.87;;;22.20;99.90;;;;;;5102016;27;20646;-63
2023/08/18 06:46:47;;;;;;;14.93;12.93;;;22.20;99.90;;;;;;5074610;28;20188;-61
2023/08/18 06:49:13;;;;;;;11.23;10.00;;;22.40;99.90;;;;;;5117648;27;20227;-59
2023/08/18 06:51:39;;;;;;;9.90;8.60;;;22.50;99.90;;;;;;5100502;28;20195;-59
2023/08/18 06:54:04;;;;;;;9.63;8.67;;;22.50;99.90;;;;;;5114912;27;20196;-59
2023/08/18 06:56:30;;;;;;;10.73;9.33;;;22.60;99.90;;;;;;5089574;28;20211;-59
2023/08/18 06:58:55;;;;;;;14.33;9.90;;;22.60;99.90;;;;;;5103127;27;20200;-59
2023/08/18 07:01:21;;;;;;;10.63;8.87;;;22.70;99.90;;;;;;5121876;27;20192;-59
2023/08/18 07:03:48;;;;;;;10.20;9.23;;;22.70;99.90;;;;;;5100937;28;20567;-61
2023/08/18 07:06:14;;;;;;;8.93;8.17;;;22.70;99.90;;;;;;5113779;27;20232;-63
2023/08/18 07:08:39;;;;;;;10.53;8.87;;;22.80;99.90;;;;;;5088524;28;20225;-59
2023/08/18 07:11:05;;;;;;;12.63;9.97;;;22.80;99.90;;;;;;5109840;27;21273;-64
2023/08/18 07:13:30;;;;;;;9.10;8.20;;;22.80;99.90;;;;;;5106920;27;20716;-57
2023/08/18 07:15:56;;;;;;;10.83;9.83;;;22.80;99.90;;;;;;5118824;27;20235;-60
2023/08/18 07:18:21;;;;;;;10.57;9.50;;;23.00;99.90;;;;;;5083374;28;20448;-62
2023/08/18 07:20:47;;;;;;;9.37;8.57;;;23.10;99.90;;;;;;5117066;28;20181;-63
2023/08/18 07:23:12;;;;;;;8.40;7.80;;;23.10;99.90;;;;;;5091675;28;20208;-62
2023/08/18 07:25:42;;;;;;;8.43;7.67;;;23.20;99.90;;;;;;5087806;28;20248;-62
2023/08/18 07:28:07;;;;;;;9.33;8.50;;;23.30;99.90;;;;;;5083365;28;20213;-70
2023/08/18 07:30:33;;;;;;;8.50;7.70;;;23.40;99.90;;;;;;5115597;28;20212;-74
2023/08/18 07:32:59;;;;;;;9.65;7.97;;;23.50;99.90;;;;;;5092285;28;20193;-67
2023/08/18 07:35:24;;;;;;;16.03;14.33;;;23.30;99.90;;;;;;5086592;28;20725;-65
2023/08/18 07:37:51;;;;;;;9.27;8.37;;;23.40;99.90;;;;;;5116465;28;20276;-59
2023/08/18 07:40:16;;;;;;;8.47;7.53;;;23.60;99.90;;;;;;5113342;28;20220;-60
2023/08/18 07:42:44;;;;;;;10.07;8.40;;;23.60;99.90;;;;;;5105556;28;20642;-60
2023/08/18 07:45:09;;;;;;;8.77;8.00;;;23.70;99.90;;;;;;5097567;28;20177;-63
2023/08/18 07:47:37;;;;;;;8.80;7.93;;;23.70;99.90;;;;;;5068304;28;20276;-63
2023/08/18 07:50:03;;;;;;;8.73;6.67;;;23.80;99.90;;;;;;5101619;28;20182;-63
2023/08/18 07:52:29;;;;;;;8.85;8.05;;;23.80;99.90;;;;;;5100696;28;20423;-63
2023/08/18 07:54:54;;;;;;;7.30;6.63;;;23.90;99.90;;;;;;5068748;28;20253;-58
2023/08/18 07:57:20;;;;;;;7.10;6.50;;;23.90;99.90;;;;;;5121173;28;20203;-62
2023/08/18 07:59:45;;;;;;;7.38;6.63;;;23.90;99.90;;;;;;5102171;28;20672;-60
2023/08/18 08:02:11;;;;;;;7.60;7.00;;;23.90;99.90;;;;;;5108963;28;20215;-59
2023/08/18 08:04:36;;;;;;;13.35;7.25;;;24.00;99.90;;;;;;5082891;28;20314;-61
2023/08/18 08:07:04;;;;;;;8.10;7.25;;;24.00;99.90;;;;;;5106033;28;20193;-62
2023/08/18 08:09:30;;;;;;;7.97;7.28;;;24.00;99.90;;;;;;5106960;27;20190;-60
2023/08/18 08:11:56;;;;;;;9.43;7.25;;;24.20;99.90;;;;;;5120598;27;20249;-61
2023/08/18 08:14:22;;;;;;;8.52;7.32;;;24.30;99.90;;;;;;5124951;27;20243;-57
2023/08/18 08:16:47;;;;;;;7.20;6.50;;;24.30;99.90;;;;;;5105578;27;20225;-58
2023/08/18 08:19:13;;;;;;;9.70;7.55;;;24.20;99.90;;;;;;5105070;27;20216;-57
2023/08/18 08:21:40;;;;;;;8.05;5.90;;;24.30;99.90;;;;;;5117681;27;20239;-67
2023/08/18 08:24:06;;;;;;;7.38;6.68;;;24.30;99.90;;;;;;5113439;27;20202;-69
2023/08/18 08:26:32;;;;;;;7.22;6.53;;;24.40;99.90;;;;;;5083820;28;20687;-72
2023/08/18 08:28:58;;;;;;;7.97;6.75;;;24.50;99.90;;;;;;5110016;27;20578;-69
2023/08/18 08:31:23;;;;;;;7.68;6.35;;;24.60;99.90;;;;;;5088082;28;20194;-74
2023/08/18 08:33:49;;;;;;;7.10;6.40;;;24.70;99.90;;;;;;5075426;28;20193;-66
2023/08/18 08:36:14;;;;;;;6.55;6.10;;;24.70;99.90;;;;;;5078823;28;20802;-62
2023/08/18 08:38:41;;;;;;;7.13;6.63;;;24.80;99.90;;;;;;5120865;27;20243;-62
2023/08/18 08:41:07;;;;;;;7.78;6.90;;;24.80;99.90;;;;;;5112670;27;20200;-62
2023/08/18 08:43:33;;;;;;;6.47;5.90;;;24.80;99.90;;;;;;5112279;27;20266;-58
2023/08/18 08:45:59;;;;;;;10.27;6.85;;;24.80;99.90;;;;;;5116336;27;20186;-58
2023/08/18 08:48:46;;;;;;;7.00;6.35;;;24.90;99.90;;;;;;5110638;27;20233;-58
2023/08/18 08:51:14;;;;;;;7.90;6.10;;;25.00;99.90;;;;;;5087783;28;20184;-59
2023/08/18 08:53:43;;;;;;;11.75;6.75;;;25.00;99.90;;;;;;5098033;28;20196;-73
2023/08/18 08:56:09;;;;;;;6.72;6.10;;;25.00;99.90;;;;;;5124385;27;20230;-69
2023/08/18 08:58:35;;;;;;;8.60;7.28;;;25.10;99.90;;;;;;5103096;28;21086;-69
2023/08/18 09:01:01;;;;;;;6.85;6.35;;;25.10;99.90;;;;;;5079162;28;20192;-72
2023/08/18 09:03:29;;;;;;;7.43;6.72;;;25.10;99.90;;;;;;5104092;27;20197;-60
2023/08/18 09:05:55;;;;;;;9.63;7.40;;;25.10;99.90;;;;;;5073827;28;20442;-69
2023/08/18 09:08:21;;;;;;;7.80;6.65;;;25.10;99.90;;;;;;5109393;27;20261;-66
2023/08/18 09:10:47;;;;;;;6.82;6.22;;;25.30;99.90;;;;;;5087048;28;20607;-64
2023/08/18 09:13:13;;;;;;;6.80;6.07;;;25.20;99.90;;;;;;5113688;27;20190;-58
2023/08/18 09:15:44;;;;;;;8.65;6.32;;;25.20;99.90;;;;;;5084970;28;20791;-61
2023/08/18 09:18:14;;;;;;;6.72;6.13;;;25.40;99.90;;;;;;5071154;28;20660;-61
2023/08/18 09:20:44;;;;;;;8.90;6.22;;;25.40;99.90;;;;;;5089080;28;20271;-60
2023/08/18 09:23:10;;;;;;;6.65;5.70;;;25.30;99.90;;;;;;5085081;28;20271;-61
2023/08/18 09:25:36;;;;;;;6.07;5.55;;;25.40;99.90;;;;;;5116657;27;20210;-61
2023/08/18 09:28:05;;;;;;;6.53;5.85;;;25.50;99.90;;;;;;5108772;27;20873;-65
2023/08/18 09:30:31;;;;;;;7.68;6.18;;;25.40;99.90;;;;;;5112969;27;20193;-60
2023/08/18 09:33:00;;;;;;;6.50;5.63;;;25.70;99.90;;;;;;5109155;27;20201;-61
2023/08/18 09:35:26;;;;;;;5.75;5.35;;;26.10;99.90;;;;;;5105138;27;20207;-63
2023/08/18 09:37:58;;;;;;;8.05;5.95;;;26.10;99.90;;;;;;5109959;27;20192;-68
2023/08/18 09:40:25;;;;;;;7.57;6.30;;;26.00;99.90;;;;;;5119002;27;20200;-69
2023/08/18 09:42:50;;;;;;;5.07;4.68;;;25.90;99.90;;;;;;5114535;27;20177;-60
2023/08/18 09:45:16;;;;;;;6.70;6.10;;;25.80;99.90;;;;;;5098274;28;20696;-59
2023/08/18 09:47:42;;;;;;;7.65;5.57;;;26.00;99.90;;;;;;5091677;28;20211;-60
2023/08/18 09:50:10;;;;;;;6.10;5.60;;;25.90;99.90;;;;;;5105942;27;20187;-59
2023/08/18 09:52:41;;;;;;;5.68;5.25;;;25.90;99.90;;;;;;5103465;27;20189;-64
2023/08/18 09:55:12;;;;;;;6.43;5.82;;;26.10;99.90;;;;;;5083995;28;20182;-65
2023/08/18 09:57:49;;;;;;;6.47;5.85;;;26.20;99.90;;;;;;5103583;27;20192;-60
2023/08/18 10:00:16;;;;;;;5.85;5.45;;;26.30;99.90;;;;;;5099588;28;20266;-61
2023/08/18 10:02:44;;;;;;;6.45;5.57;;;26.30;99.90;;;;;;5102782;27;20187;-59
2023/08/18 10:05:10;;;;;;;6.68;6.03;;;26.20;99.90;;;;;;5101399;28;20208;-61
2023/08/18 10:07:37;;;;;;;6.43;5.57;;;26.20;99.90;;;;;;5085339;28;20215;-59
2023/08/18 10:10:03;;;;;;;5.90;5.40;;;26.20;99.90;;;;;;5102153;27;20202;-75
2023/08/18 10:12:29;;;;;;;5.78;5.30;;;26.10;99.90;;;;;;5082973;28;20257;-73
2023/08/18 10:14:56;;;;;;;5.78;5.10;;;26.30;99.90;;;;;;5081565;28;20232;-80
2023/08/18 10:17:24;;;;;;;6.50;5.93;;;26.40;99.90;;;;;;5100957;27;20214;-63
2023/08/18 10:19:55;;;;;;;5.78;5.38;;;26.50;99.90;;;;;;5083617;28;20202;-63
2023/08/18 10:22:26;;;;;;;5.95;5.35;;;26.60;99.90;;;;;;5102684;27;20193;-63
2023/08/18 10:24:53;;;;;;;5.40;4.57;;;26.90;99.90;;;;;;5104656;27;20190;-63
2023/08/18 10:27:27;;;;;;;5.90;5.40;;;26.80;99.90;;;;;;5083744;28;20207;-63
2023/08/18 10:30:00;;;;;;;5.32;4.82;;;26.70;99.90;;;;;;5086247;28;20735;-64
2023/08/18 10:32:25;;;;;;;5.60;5.07;;;26.70;99.90;;;;;;5103627;27;20206;-72
2023/08/18 10:34:51;;;;;;;5.32;4.93;;;26.40;99.90;;;;;;5103961;27;20290;-72
2023/08/18 10:37:20;;;;;;;4.95;4.55;;;26.60;99.90;;;;;;5109139;27;20195;-67
2023/08/18 10:39:46;;;;;;;4.97;4.57;;;26.60;99.90;;;;;;5103354;27;20199;-60
2023/08/18 10:42:15;;;;;;;5.78;5.22;;;27.10;99.90;;;;;;5085536;27;20241;-68
2023/08/18 10:45:21;;;;;;;7.22;4.57;;;26.80;99.90;;;;;;5086318;28;20210;-69
2023/08/18 10:47:46;;;;;;;5.63;5.10;;;26.90;99.90;;;;;;5100215;28;20196;-60
2023/08/18 10:50:14;;;;;;;4.47;4.18;;;26.50;99.90;;;;;;5101754;28;20200;-62
2023/08/18 10:52:40;;;;;;;5.93;5.25;;;26.80;99.90;;;;;;5103415;27;20268;-60
2023/08/18 10:55:06;;;;;;;6.72;4.65;;;26.70;99.90;;;;;;5101746;28;20206;-63
2023/08/18 10:57:33;;;;;;;4.95;4.55;;;27.10;99.90;;;;;;5099378;27;20282;-63
2023/08/18 10:59:59;;;;;;;4.65;4.25;;;27.80;99.90;;;;;;5082480;28;20184;-63
2023/08/18 11:02:25;;;;;;;5.05;4.53;;;27.50;99.90;;;;;;5103258;27;20282;-63
2023/08/18 11:04:51;;;;;;;5.15;4.53;;;27.70;99.90;;;;;;5083979;28;20639;-62
2023/08/18 11:07:19;;;;;;;4.82;4.43;;;28.00;99.90;;;;;;5082936;28;20197;-62
2023/08/18 11:09:45;;;;;;;5.20;4.80;;;28.00;99.90;;;;;;5103429;27;20179;-62
2023/08/18 11:12:10;;;;;;;4.65;4.35;;;27.80;99.90;;;;;;5114175;27;20189;-62
2023/08/18 11:14:36;;;;;;;6.65;5.70;;;27.60;99.90;;;;;;5104962;28;20209;-61
2023/08/18 11:17:02;;;;;;;5.13;4.72;;;28.20;99.90;;;;;;5101936;28;20227;-58
2023/08/18 11:19:27;;;;;;;5.55;5.10;;;28.00;99.90;;;;;;5085124;28;20192;-60
2023/08/18 11:21:55;;;;;;;4.60;4.30;;;27.50;99.90;;;;;;5102860;28;20203;-69
2023/08/18 11:24:21;;;;;;;5.10;4.72;;;27.60;99.90;;;;;;5103268;28;20193;-63
2023/08/18 11:26:47;;;;;;;4.82;4.18;;;28.30;99.90;;;;;;5083295;28;20204;-63
2023/08/18 11:29:14;;;;;;;5.68;5.25;;;28.20;99.90;;;;;;5103224;28;20204;-63
2023/08/18 11:31:39;;;;;;;5.32;4.82;;;28.50;99.90;;;;;;5109957;28;20257;-64
2023/08/18 11:34:07;;;;;;;6.63;5.88;;;28.10;99.90;;;;;;5106176;28;20200;-64
2023/08/18 11:36:33;;;;;;;6.07;5.57;;;28.30;99.90;;;;;;5102185;28;20200;-71
2023/08/18 11:39:08;;;;;;;6.45;5.22;;;28.00;99.90;;;;;;5102266;28;20826;-58
2023/08/18 11:41:43;;;;;;;6.20;5.38;;;28.10;99.90;;;;;;5103939;28;20560;-59
2023/08/18 11:44:09;;;;;;;6.85;5.03;;;28.40;99.90;;;;;;5100680;27;20191;-58
2023/08/18 11:46:36;;;;;;;5.53;5.13;;;28.00;99.90;;;;;;5106732;27;20189;-61
2023/08/18 11:49:11;;;;;;;6.03;5.53;;;27.70;99.90;;;;;;5105781;28;20216;-62
2023/08/18 11:51:37;;;;;;;5.07;4.78;;;27.90;99.90;;;;;;5105305;28;20173;-66
2023/08/18 11:54:11;;;;;;;6.07;5.47;;;28.40;99.90;;;;;;5104638;28;21109;-62
2023/08/18 11:56:38;;;;;;;6.57;5.22;;;28.60;99.90;;;;;;5104610;28;20176;-69
2023/08/18 11:59:03;;;;;;;5.43;4.93;;;29.10;99.90;;;;;;5087399;28;20192;-61
2023/08/18 12:01:33;;;;;;;5.60;5.20;;;29.70;99.50;;;;;;5107362;27;20184;-60
2023/08/18 12:03:59;;;;;;;5.97;5.43;;;29.50;99.90;;;;;;5106998;27;20704;-74
2023/08/18 12:06:24;;;;;;;6.18;5.55;;;29.60;98.90;;;;;;5092360;28;20197;-63
2023/08/18 12:08:50;;;;;;;5.78;5.28;;;29.00;99.90;;;;;;5112775;27;20208;-70
2023/08/18 12:11:16;;;;;;;5.35;4.93;;;29.60;99.60;;;;;;5121925;27;20193;-78
2023/08/18 12:13:42;;;;;;;5.05;4.60;;;30.90;97.50;;;;;;5123942;27;20253;-73
2023/08/18 12:16:07;;;;;;;6.82;5.53;;;31.10;96.30;;;;;;5093518;28;20216;-81
2023/08/18 12:18:34;;;;;;;5.80;5.30;;;30.80;97.60;;;;;;5088128;28;20231;-78
2023/08/18 12:21:00;;;;;;;5.38;5.03;;;31.10;97.50;;;;;;5121069;27;20238;-66
2023/08/18 12:23:25;;;;;;;4.93;4.53;;;31.50;95.60;;;;;;5115531;27;20599;-64
2023/08/18 12:25:51;;;;;;;4.88;4.50;;;31.70;95.20;;;;;;5116028;27;20207;-66
2023/08/18 12:28:17;;;;;;;5.43;4.97;;;31.90;95.20;;;;;;5112133;27;20208;-72
2023/08/18 12:30:43;;;;;;;5.70;5.20;;;32.20;93.10;;;;;;5086628;28;20181;-66
2023/08/18 12:35:40;;;;;;;5.13;4.82;;;32.90;93.00;;;;;;5020365;28;20273;-66
2023/08/18 12:38:07;;;;;;;6.38;5.85;;;32.50;91.70;;;;;;5039318;28;20195;-66
2023/08/18 12:40:33;;;;;;;5.78;5.28;;;32.30;93.70;;;;;;5025107;28;20249;-66
2023/08/18 12:42:58;;;;;;;6.57;5.72;;;32.60;93.10;;;;;;5007865;28;20642;-67